Darstellungsparameter: Aktuell verwendete Einstellungen:
Skalierung der Graphiken ... ?
xyx+y,   Skalierungsfaktor:      Skalierung: Modus: x, Faktor: 1
Darstellungszeitraum ... ?
Vom - - bis: - -   Zeitraum: 12.02.2021 - 12.02.2021
Min/Max/Avg-Anzeige ... ?
Zeige MMA aktuell
Zeige MMA Monat
Zeige MMA alles
Zeige --A aktuell
Zeige --A Monat
Zeige --A alles
Keine MMA-Anzeige
MMA:
Average (ber die Originaldaten)
MMA-Basis: 12.02.2021 - 12.02.2021
Quicknavigation für Darstellung... ?
Tage:      1T, 2T, 3T, 5T -1T -2T -3T -5T +1T +2T +3T +5T
Wochen: 1W, 2W, 3W -1W -2W -3W +1W +2W +3W
Monate: 1M, 3M, 6M -1M -3M -6M +1M +3M +6M
Jahre:    1J, 3J, 5J, 10J -1J -3J -5J -10J +1J +3J +5J +10J
Nutze für die Darstellung ... ?
Originaldaten oder Mittelwerte auf ...
Stundenbasis Tagesbasis Wochenbasis
Monatsbasis Jahresbasis      Datenbasis: Original-Daten
Darstellen als:
Statistik (Auto) Statistik J:M      Darstellung:
Zur Graphik,    zurück zur Übersicht aller Sensoren.
 
Tabellarische Datenbersicht: ?
 
Sensor: Nr:Datum:Temp:Abs-Feuchte:Windchill:Wind:
Aussen-T/F 1 12-02-2021 00:00:00 -4.7 C 2.78 g/m*3 -7.61 C 6.4 km/h
2 12-02-2021 00:05:00 -4.7 C 2.82 g/m*3 -4.7 C 3.2 km/h
3 12-02-2021 00:10:00 -4.8 C 2.8 g/m*3 -4.8 C 4.8 km/h
4 12-02-2021 00:15:00 -4.9 C 2.78 g/m*3 -9.07 C 9.7 km/h
5 12-02-2021 00:20:00 -5 C 2.76 g/m*3 -5 C 0 km/h
6 12-02-2021 00:25:00 -5.1 C 2.74 g/m*3 -5.1 C 4.8 km/h
7 12-02-2021 00:30:00 -5.1 C 2.77 g/m*3 -5.1 C 0 km/h
8 12-02-2021 00:35:00 -5.2 C 2.75 g/m*3 -5.2 C 3.2 km/h
9 12-02-2021 00:40:00 -5.2 C 2.75 g/m*3 -5.2 C 4.8 km/h
10 12-02-2021 00:45:00 -5 C 2.76 g/m*3 -8.65 C 8.1 km/h
11 12-02-2021 00:50:00 -4.8 C 2.76 g/m*3 -8.96 C 9.7 km/h
12 12-02-2021 00:55:00 -4.8 C 2.76 g/m*3 -4.8 C 1.6 km/h
13 12-02-2021 01:00:00 -4.9 C 2.74 g/m*3 -4.9 C 3.2 km/h
14 12-02-2021 01:05:00 -5.1 C 2.74 g/m*3 -5.1 C 1.6 km/h
15 12-02-2021 01:10:00 -5.2 C 2.72 g/m*3 -5.2 C 1.6 km/h
16 12-02-2021 01:15:00 -5.3 C 2.7 g/m*3 -8.3 C 6.4 km/h
17 12-02-2021 01:20:00 -5.4 C 2.71 g/m*3 -5.4 C 3.2 km/h
18 12-02-2021 01:25:00 -5.4 C 2.71 g/m*3 -5.4 C 4.8 km/h
19 12-02-2021 01:30:00 -5.3 C 2.73 g/m*3 -5.3 C 3.2 km/h
20 12-02-2021 01:35:00 -5.4 C 2.71 g/m*3 -5.4 C 1.6 km/h
21 12-02-2021 01:40:00 -5.4 C 2.71 g/m*3 -5.4 C 0 km/h
22 12-02-2021 01:45:00 -5.6 C 2.67 g/m*3 -5.6 C 1.6 km/h
23 12-02-2021 01:50:00 -5.7 C 2.65 g/m*3 -5.7 C 1.6 km/h
24 12-02-2021 01:55:00 -5.8 C 2.64 g/m*3 -5.8 C 3.2 km/h
25 12-02-2021 02:00:00 -5.9 C 2.65 g/m*3 -5.9 C 1.6 km/h
Sensor: Nr:Datum:Temp:Abs-Feuchte:Windchill:Wind:
Aussen-T/F 26 12-02-2021 02:05:00 -6.1 C 2.61 g/m*3 -6.1 C 3.2 km/h
27 12-02-2021 02:10:00 -6.2 C 2.62 g/m*3 -6.2 C 0 km/h
28 12-02-2021 02:15:00 -6.3 C 2.6 g/m*3 -6.3 C 3.2 km/h
29 12-02-2021 02:20:00 -6.4 C 2.61 g/m*3 -6.4 C 3.2 km/h
30 12-02-2021 02:25:00 -6.4 C 2.61 g/m*3 -6.4 C 1.6 km/h
31 12-02-2021 02:30:00 -6.6 C 2.58 g/m*3 -6.6 C 4.8 km/h
32 12-02-2021 02:35:00 -6.6 C 2.61 g/m*3 -6.6 C 3.2 km/h
33 12-02-2021 02:40:00 -6.7 C 2.59 g/m*3 -6.7 C 1.6 km/h
34 12-02-2021 02:45:00 -6.8 C 2.57 g/m*3 -6.8 C 1.6 km/h
35 12-02-2021 02:50:00 -6.8 C 2.57 g/m*3 -6.8 C 1.6 km/h
36 12-02-2021 02:55:00 -6.8 C 2.6 g/m*3 -6.8 C 0 km/h
37 12-02-2021 03:00:00 -6.7 C 2.62 g/m*3 -6.7 C 1.6 km/h
38 12-02-2021 03:05:00 -6.7 C 2.62 g/m*3 -6.7 C 3.2 km/h
39 12-02-2021 03:10:00 -6.8 C 2.57 g/m*3 -6.8 C 1.6 km/h
40 12-02-2021 03:15:00 -6.9 C 2.58 g/m*3 -6.9 C 1.6 km/h
41 12-02-2021 03:20:00 -6.9 C 2.58 g/m*3 -6.9 C 3.2 km/h
42 12-02-2021 03:25:00 -6.9 C 2.58 g/m*3 -6.9 C 3.2 km/h
43 12-02-2021 03:30:00 -6.9 C 2.58 g/m*3 -6.9 C 1.6 km/h
44 12-02-2021 03:35:00 -6.9 C 2.61 g/m*3 -10.88 C 8.1 km/h
45 12-02-2021 03:40:00 -6.9 C 2.61 g/m*3 -6.9 C 1.6 km/h
46 12-02-2021 03:45:00 -6.9 C 2.61 g/m*3 -6.9 C 4.8 km/h
47 12-02-2021 03:50:00 -6.8 C 2.63 g/m*3 -6.8 C 3.2 km/h
48 12-02-2021 03:55:00 -6.6 C 2.67 g/m*3 -6.6 C 3.2 km/h
49 12-02-2021 04:00:00 -6.4 C 2.71 g/m*3 -6.4 C 1.6 km/h
50 12-02-2021 04:05:00 -6.3 C 2.73 g/m*3 -6.3 C 1.6 km/h
Sensor: Nr:Datum:Temp:Abs-Feuchte:Windchill:Wind:
Aussen-T/F 51 12-02-2021 04:10:00 -6.1 C 2.74 g/m*3 -6.1 C 3.2 km/h
52 12-02-2021 04:15:00 -6 C 2.76 g/m*3 -6 C 1.6 km/h
53 12-02-2021 04:20:00 -6 C 2.76 g/m*3 -6 C 0 km/h
54 12-02-2021 04:25:00 -6.1 C 2.74 g/m*3 -6.1 C 3.2 km/h
55 12-02-2021 04:30:00 -6.1 C 2.74 g/m*3 -6.1 C 1.6 km/h
56 12-02-2021 04:35:00 -6 C 2.76 g/m*3 -6 C 1.6 km/h
57 12-02-2021 04:40:00 -6 C 2.76 g/m*3 -9.11 C 6.4 km/h
58 12-02-2021 04:45:00 -5.9 C 2.78 g/m*3 -5.9 C 0 km/h
59 12-02-2021 04:50:00 -5.8 C 2.8 g/m*3 -5.8 C 4.8 km/h
60 12-02-2021 04:55:00 -5.7 C 2.78 g/m*3 -8.77 C 6.4 km/h
61 12-02-2021 05:00:00 -5.5 C 2.82 g/m*3 -8.54 C 6.4 km/h
62 12-02-2021 05:05:00 -5.4 C 2.81 g/m*3 -9.12 C 8.1 km/h
63 12-02-2021 05:10:00 -5.3 C 2.83 g/m*3 -8.3 C 6.4 km/h
64 12-02-2021 05:15:00 -5.3 C 2.8 g/m*3 -9.55 C 9.7 km/h
65 12-02-2021 05:20:00 -5.2 C 2.82 g/m*3 -8.88 C 8.1 km/h
66 12-02-2021 05:25:00 -5.2 C 2.82 g/m*3 -8.88 C 8.1 km/h
67 12-02-2021 05:30:00 -5.2 C 2.82 g/m*3 -9.43 C 9.7 km/h
68 12-02-2021 05:35:00 -5.2 C 2.79 g/m*3 -8.19 C 6.4 km/h
69 12-02-2021 05:40:00 -5.2 C 2.82 g/m*3 -8.19 C 6.4 km/h
70 12-02-2021 05:45:00 -5.3 C 2.77 g/m*3 -5.3 C 4.8 km/h
71 12-02-2021 05:50:00 -5.3 C 2.8 g/m*3 -5.3 C 1.6 km/h
72 12-02-2021 05:55:00 -5.4 C 2.78 g/m*3 -5.4 C 3.2 km/h
73 12-02-2021 06:00:00 -5.4 C 2.78 g/m*3 -5.4 C 3.2 km/h
74 12-02-2021 06:05:00 -5.5 C 2.76 g/m*3 -8.54 C 6.4 km/h
75 12-02-2021 06:10:00 -5.6 C 2.74 g/m*3 -9.35 C 8.1 km/h
Sensor: Nr:Datum:Temp:Abs-Feuchte:Windchill:Wind:
Aussen-T/F 76 12-02-2021 06:15:00 -5.6 C 2.74 g/m*3 -5.6 C 1.6 km/h
77 12-02-2021 06:20:00 -5.7 C 2.75 g/m*3 -5.7 C 0 km/h
78 12-02-2021 06:25:00 -5.7 C 2.75 g/m*3 -5.7 C 1.6 km/h
79 12-02-2021 06:30:00 -5.8 C 2.73 g/m*3 -5.8 C 0 km/h
80 12-02-2021 06:35:00 -5.9 C 2.71 g/m*3 -5.9 C 0 km/h
81 12-02-2021 06:40:00 -6 C 2.69 g/m*3 -6 C 0 km/h
82 12-02-2021 06:45:00 -6.1 C 2.7 g/m*3 -6.1 C 0 km/h
83 12-02-2021 06:50:00 -6.2 C 2.68 g/m*3 -6.2 C 0 km/h
84 12-02-2021 06:55:00 -6.3 C 2.66 g/m*3 -6.3 C 0 km/h
85 12-02-2021 07:00:00 -6.4 C 2.65 g/m*3 -6.4 C 1.6 km/h
86 12-02-2021 07:05:00 -6.5 C 2.63 g/m*3 -6.5 C 3.2 km/h
87 12-02-2021 07:10:00 -6.6 C 2.61 g/m*3 -6.6 C 3.2 km/h
88 12-02-2021 07:15:00 -6.7 C 2.62 g/m*3 -6.7 C 1.6 km/h
89 12-02-2021 07:20:00 -6.7 C 2.62 g/m*3 -6.7 C 1.6 km/h
90 12-02-2021 07:25:00 -6.8 C 2.6 g/m*3 -6.8 C 0 km/h
91 12-02-2021 07:30:00 -6.8 C 2.6 g/m*3 -6.8 C 0 km/h
92 12-02-2021 07:35:00 -6.9 C 2.58 g/m*3 -6.9 C 1.6 km/h
93 12-02-2021 07:40:00 -7 C 2.59 g/m*3 -7 C 0 km/h
94 12-02-2021 07:45:00 -7.1 C 2.57 g/m*3 -7.1 C 0 km/h
95 12-02-2021 07:50:00 -7.2 C 2.55 g/m*3 -7.2 C 0 km/h
96 12-02-2021 07:55:00 -7.2 C 2.55 g/m*3 -7.2 C 0 km/h
97 12-02-2021 08:00:00 -7.3 C 2.53 g/m*3 -7.3 C 0 km/h
98 12-02-2021 08:05:00 -7.3 C 2.53 g/m*3 -7.3 C 3.2 km/h
99 12-02-2021 08:10:00 -7.4 C 2.54 g/m*3 -7.4 C 1.6 km/h
100 12-02-2021 08:15:00 -7.4 C 2.54 g/m*3 -7.4 C 1.6 km/h
Sensor: Nr:Datum:Temp:Abs-Feuchte:Windchill:Wind:
Aussen-T/F 101 12-02-2021 08:20:00 -7.4 C 2.54 g/m*3 -7.4 C 0 km/h
102 12-02-2021 08:25:00 -7.4 C 2.54 g/m*3 -7.4 C 3.2 km/h
103 12-02-2021 08:30:00 -7.4 C 2.54 g/m*3 -7.4 C 0 km/h
104 12-02-2021 08:35:00 -7.4 C 2.54 g/m*3 -7.4 C 0 km/h
105 12-02-2021 08:40:00 -7.4 C 2.54 g/m*3 -7.4 C 1.6 km/h
106 12-02-2021 08:45:00 -7.4 C 2.57 g/m*3 -7.4 C 1.6 km/h
107 12-02-2021 08:50:00 -7.4 C 2.57 g/m*3 -7.4 C 3.2 km/h
108 12-02-2021 08:55:00 -7.4 C 2.57 g/m*3 -7.4 C 0 km/h
109 12-02-2021 09:00:00 -7.3 C 2.59 g/m*3 -7.3 C 0 km/h
110 12-02-2021 09:05:00 -7.3 C 2.59 g/m*3 -7.3 C 3.2 km/h
111 12-02-2021 09:10:00 -7.3 C 2.59 g/m*3 -7.3 C 0 km/h
112 12-02-2021 09:15:00 -7.3 C 2.59 g/m*3 -7.3 C 0 km/h
113 12-02-2021 09:20:00 -7.2 C 2.61 g/m*3 -7.2 C 1.6 km/h
114 12-02-2021 09:25:00 -7.2 C 2.61 g/m*3 -7.2 C 1.6 km/h
115 12-02-2021 09:30:00 -7.1 C 2.63 g/m*3 -7.1 C 4.8 km/h
116 12-02-2021 09:35:00 -7.1 C 2.63 g/m*3 -7.1 C 1.6 km/h
117 12-02-2021 09:40:00 -7 C 2.65 g/m*3 -7 C 1.6 km/h
118 12-02-2021 09:45:00 -6.9 C 2.67 g/m*3 -6.9 C 3.2 km/h
119 12-02-2021 09:50:00 -6.9 C 2.67 g/m*3 -6.9 C 0 km/h
120 12-02-2021 09:55:00 -6.8 C 2.69 g/m*3 -6.8 C 1.6 km/h
121 12-02-2021 10:00:00 -6.8 C 2.69 g/m*3 -6.8 C 1.6 km/h
122 12-02-2021 10:05:00 -6.8 C 2.69 g/m*3 -6.8 C 0 km/h
123 12-02-2021 10:10:00 -6.7 C 2.71 g/m*3 -6.7 C 4.8 km/h
124 12-02-2021 10:15:00 -6.5 C 2.75 g/m*3 -6.5 C 1.6 km/h
125 12-02-2021 10:20:00 -6.4 C 2.74 g/m*3 -6.4 C 3.2 km/h
Sensor: Nr:Datum:Temp:Abs-Feuchte:Windchill:Wind:
Aussen-T/F 126 12-02-2021 10:25:00 -6.2 C 2.78 g/m*3 -6.2 C 3.2 km/h
127 12-02-2021 10:30:00 -6.1 C 2.77 g/m*3 -6.1 C 3.2 km/h
128 12-02-2021 10:35:00 -6 C 2.79 g/m*3 -6 C 3.2 km/h
129 12-02-2021 10:40:00 -5.9 C 2.81 g/m*3 -5.9 C 3.2 km/h
130 12-02-2021 10:45:00 -5.7 C 2.82 g/m*3 -5.7 C 3.2 km/h
131 12-02-2021 10:50:00 -5.6 C 2.8 g/m*3 -9.35 C 8.1 km/h
132 12-02-2021 10:55:00 -5.3 C 2.83 g/m*3 -5.3 C 3.2 km/h
133 12-02-2021 11:00:00 -5.1 C 2.84 g/m*3 -5.1 C 3.2 km/h
134 12-02-2021 11:05:00 -4.8 C 2.83 g/m*3 -9.85 C 12.9 km/h
135 12-02-2021 11:10:00 -4.6 C 2.84 g/m*3 -4.6 C 4.8 km/h
136 12-02-2021 11:15:00 -4.3 C 2.79 g/m*3 -9.24 C 12.9 km/h
137 12-02-2021 11:20:00 -4.1 C 2.8 g/m*3 -8.12 C 9.7 km/h
138 12-02-2021 11:25:00 -3.9 C 2.8 g/m*3 -7.35 C 8.1 km/h
139 12-02-2021 11:30:00 -3.8 C 2.78 g/m*3 -8.22 C 11.3 km/h
140 12-02-2021 11:35:00 -3.7 C 2.77 g/m*3 -7.64 C 9.7 km/h
141 12-02-2021 11:40:00 -3.5 C 2.77 g/m*3 -8.26 C 12.9 km/h
142 12-02-2021 11:45:00 -3.4 C 2.79 g/m*3 -6.11 C 6.4 km/h
143 12-02-2021 11:50:00 -3.3 C 2.77 g/m*3 -5.99 C 6.4 km/h
144 12-02-2021 11:55:00 -3.2 C 2.79 g/m*3 -7.9 C 12.9 km/h
145 12-02-2021 12:00:00 -3.1 C 2.81 g/m*3 -6.93 C 9.7 km/h
146 12-02-2021 12:05:00 -2.9 C 2.85 g/m*3 -7.53 C 12.9 km/h
147 12-02-2021 12:10:00 -2.9 C 2.81 g/m*3 -7.89 C 14.5 km/h
148 12-02-2021 12:15:00 -2.8 C 2.83 g/m*3 -7.41 C 12.9 km/h
149 12-02-2021 12:20:00 -2.7 C 2.85 g/m*3 -5.94 C 8.1 km/h
150 12-02-2021 12:25:00 -2.5 C 2.89 g/m*3 -7.04 C 12.9 km/h
Sensor: Nr:Datum:Temp:Abs-Feuchte:Windchill:Wind:
Aussen-T/F 151 12-02-2021 12:30:00 -2.4 C 2.87 g/m*3 -6.1 C 9.7 km/h
152 12-02-2021 12:35:00 -2.3 C 2.85 g/m*3 -7.47 C 16.1 km/h
153 12-02-2021 12:40:00 -2.2 C 2.87 g/m*3 -7.03 C 14.5 km/h
154 12-02-2021 12:45:00 -2.1 C 2.85 g/m*3 -6.9 C 14.5 km/h
155 12-02-2021 12:50:00 -2.1 C 2.85 g/m*3 -5.74 C 9.7 km/h
156 12-02-2021 12:55:00 -2 C 2.82 g/m*3 -6.05 C 11.3 km/h
157 12-02-2021 13:00:00 -1.9 C 2.84 g/m*3 -5.93 C 11.3 km/h
158 12-02-2021 13:05:00 -1.9 C 2.8 g/m*3 -5.93 C 11.3 km/h
159 12-02-2021 13:10:00 -1.8 C 2.78 g/m*3 -6.19 C 12.9 km/h
160 12-02-2021 13:15:00 -1.8 C 2.78 g/m*3 -7.4 C 19.3 km/h
161 12-02-2021 13:20:00 -1.7 C 2.88 g/m*3 -4.15 C 6.4 km/h
162 12-02-2021 13:25:00 -1.4 C 2.86 g/m*3 -6.35 C 16.1 km/h
163 12-02-2021 13:30:00 -1.3 C 2.92 g/m*3 -3.68 C 6.4 km/h
164 12-02-2021 13:35:00 -1.3 C 2.88 g/m*3 -5.21 C 11.3 km/h
165 12-02-2021 13:40:00 -1.3 C 2.83 g/m*3 -4.78 C 9.7 km/h
166 12-02-2021 13:45:00 -1.3 C 2.88 g/m*3 -5.58 C 12.9 km/h
167 12-02-2021 13:50:00 -1.3 C 2.88 g/m*3 -6.23 C 16.1 km/h
168 12-02-2021 13:55:00 -1.3 C 2.88 g/m*3 -5.21 C 11.3 km/h
169 12-02-2021 14:00:00 -1.2 C 2.85 g/m*3 -4.66 C 9.7 km/h
170 12-02-2021 14:05:00 -1.2 C 2.9 g/m*3 -5.09 C 11.3 km/h
171 12-02-2021 14:10:00 -1.1 C 2.87 g/m*3 -4.55 C 9.7 km/h
172 12-02-2021 14:15:00 -1 C 2.94 g/m*3 -3.34 C 6.4 km/h
173 12-02-2021 14:20:00 -1 C 2.89 g/m*3 -5.55 C 14.5 km/h
174 12-02-2021 14:25:00 -1.1 C 2.83 g/m*3 -5.34 C 12.9 km/h
175 12-02-2021 14:30:00 -1 C 2.85 g/m*3 -5.86 C 16.1 km/h
Sensor: Nr:Datum:Temp:Abs-Feuchte:Windchill:Wind:
Aussen-T/F 176 12-02-2021 14:35:00 -1 C 2.8 g/m*3 -5.22 C 12.9 km/h
177 12-02-2021 14:40:00 -1.1 C 2.78 g/m*3 -4.97 C 11.3 km/h
178 12-02-2021 14:45:00 -1.1 C 2.83 g/m*3 -3.45 C 6.4 km/h
179 12-02-2021 14:50:00 -0.9 C 2.87 g/m*3 -4.31 C 9.7 km/h
180 12-02-2021 14:55:00 -0.7 C 2.91 g/m*3 -6.26 C 20.9 km/h
181 12-02-2021 15:00:00 -0.7 C 2.86 g/m*3 -7.28 C 29 km/h
182 12-02-2021 15:05:00 -0.8 C 2.84 g/m*3 -5.31 C 14.5 km/h
183 12-02-2021 15:10:00 -0.8 C 2.84 g/m*3 -4.97 C 12.9 km/h
184 12-02-2021 15:15:00 -0.8 C 2.89 g/m*3 -3.71 C 8.1 km/h
185 12-02-2021 15:20:00 -0.8 C 2.84 g/m*3 -5.31 C 14.5 km/h
186 12-02-2021 15:25:00 -1 C 2.8 g/m*3 -5.22 C 12.9 km/h
187 12-02-2021 15:30:00 -1.2 C 2.76 g/m*3 -6.39 C 17.7 km/h
188 12-02-2021 15:35:00 -1.2 C 2.76 g/m*3 -6.39 C 17.7 km/h
189 12-02-2021 15:40:00 -1.2 C 2.81 g/m*3 -5.46 C 12.9 km/h
190 12-02-2021 15:45:00 -1.2 C 2.81 g/m*3 -5.09 C 11.3 km/h
191 12-02-2021 15:50:00 -1.2 C 2.81 g/m*3 -3.57 C 6.4 km/h
192 12-02-2021 15:55:00 -1.2 C 2.81 g/m*3 -4.18 C 8.1 km/h
193 12-02-2021 16:00:00 -1.3 C 2.74 g/m*3 -5.58 C 12.9 km/h
194 12-02-2021 16:05:00 -1.4 C 2.77 g/m*3 -1.4 C 4.8 km/h
195 12-02-2021 16:10:00 -1.4 C 2.77 g/m*3 -4.9 C 9.7 km/h
196 12-02-2021 16:15:00 -1.4 C 2.81 g/m*3 -4.42 C 8.1 km/h
197 12-02-2021 16:20:00 -1.4 C 2.81 g/m*3 -3.8 C 6.4 km/h
198 12-02-2021 16:25:00 -1.3 C 2.83 g/m*3 -5.58 C 12.9 km/h
199 12-02-2021 16:30:00 -1.3 C 2.74 g/m*3 -6.77 C 19.3 km/h
200 12-02-2021 16:35:00 -1.2 C 2.85 g/m*3 -4.18 C 8.1 km/h
Sensor: Nr:Datum:Temp:Abs-Feuchte:Windchill:Wind:
Aussen-T/F 201 12-02-2021 16:40:00 -1.2 C 2.9 g/m*3 -4.18 C 8.1 km/h
202 12-02-2021 16:45:00 -1.2 C 2.9 g/m*3 -1.2 C 4.8 km/h
203 12-02-2021 16:50:00 -1.3 C 2.92 g/m*3 -3.68 C 6.4 km/h
204 12-02-2021 16:55:00 -1.3 C 2.88 g/m*3 -3.68 C 6.4 km/h
205 12-02-2021 17:00:00 -1.4 C 2.86 g/m*3 -6.35 C 16.1 km/h
206 12-02-2021 17:05:00 -1.5 C 2.84 g/m*3 -5.02 C 9.7 km/h
207 12-02-2021 17:10:00 -1.6 C 2.86 g/m*3 -1.6 C 4.8 km/h
208 12-02-2021 17:15:00 -1.6 C 2.9 g/m*3 -1.6 C 3.2 km/h
209 12-02-2021 17:20:00 -1.7 C 2.88 g/m*3 -1.7 C 4.8 km/h
210 12-02-2021 17:25:00 -1.7 C 2.97 g/m*3 -4.15 C 6.4 km/h
211 12-02-2021 17:30:00 -1.8 C 2.95 g/m*3 -5.38 C 9.7 km/h
212 12-02-2021 17:35:00 -1.9 C 2.93 g/m*3 -4.38 C 6.4 km/h
213 12-02-2021 17:40:00 -2 C 2.95 g/m*3 -5.12 C 8.1 km/h
214 12-02-2021 17:45:00 -2.1 C 2.93 g/m*3 -2.1 C 3.2 km/h
215 12-02-2021 17:50:00 -2.2 C 2.91 g/m*3 -4.72 C 6.4 km/h
216 12-02-2021 17:55:00 -2.3 C 2.93 g/m*3 -4.84 C 6.4 km/h
217 12-02-2021 18:00:00 -2.5 C 2.93 g/m*3 -2.5 C 4.8 km/h
218 12-02-2021 18:05:00 -2.6 C 2.95 g/m*3 -2.6 C 4.8 km/h
219 12-02-2021 18:10:00 -2.7 C 2.97 g/m*3 -2.7 C 4.8 km/h
220 12-02-2021 18:15:00 -2.9 C 2.93 g/m*3 -7.53 C 12.9 km/h
221 12-02-2021 18:20:00 -2.9 C 2.97 g/m*3 -2.9 C 4.8 km/h
222 12-02-2021 18:25:00 -3.1 C 2.93 g/m*3 -6.41 C 8.1 km/h
223 12-02-2021 18:30:00 -3.2 C 2.94 g/m*3 -3.2 C 3.2 km/h
224 12-02-2021 18:35:00 -3.4 C 2.9 g/m*3 -3.4 C 0 km/h
225 12-02-2021 18:40:00 -3.6 C 2.9 g/m*3 -3.6 C 4.8 km/h
Sensor: Nr:Datum:Temp:Abs-Feuchte:Windchill:Wind:
Aussen-T/F 226 12-02-2021 18:45:00 -3.7 C 2.92 g/m*3 -3.7 C 4.8 km/h
227 12-02-2021 18:50:00 -3.8 C 2.93 g/m*3 -3.8 C 3.2 km/h
228 12-02-2021 18:55:00 -3.9 C 2.95 g/m*3 -3.9 C 1.6 km/h
229 12-02-2021 19:00:00 -4.1 C 2.91 g/m*3 -4.1 C 3.2 km/h
230 12-02-2021 19:05:00 -4.2 C 2.89 g/m*3 -4.2 C 1.6 km/h
231 12-02-2021 19:10:00 -4.3 C 2.9 g/m*3 -4.3 C 4.8 km/h
232 12-02-2021 19:15:00 -4.4 C 2.88 g/m*3 -4.4 C 1.6 km/h
233 12-02-2021 19:20:00 -4.4 C 2.92 g/m*3 -7.26 C 6.4 km/h
234 12-02-2021 19:25:00 -4.5 C 2.89 g/m*3 -4.5 C 3.2 km/h
235 12-02-2021 19:30:00 -4.6 C 2.87 g/m*3 -4.6 C 4.8 km/h
236 12-02-2021 19:35:00 -4.7 C 2.85 g/m*3 -4.7 C 3.2 km/h
237 12-02-2021 19:40:00 -4.7 C 2.85 g/m*3 -4.7 C 4.8 km/h
238 12-02-2021 19:45:00 -4.8 C 2.83 g/m*3 -4.8 C 4.8 km/h
239 12-02-2021 19:50:00 -4.8 C 2.83 g/m*3 -7.73 C 6.4 km/h
240 12-02-2021 19:55:00 -4.8 C 2.83 g/m*3 -4.8 C 4.8 km/h
241 12-02-2021 20:00:00 -4.9 C 2.81 g/m*3 -4.9 C 1.6 km/h
242 12-02-2021 20:05:00 -5 C 2.79 g/m*3 -9.67 C 11.3 km/h
243 12-02-2021 20:10:00 -5 C 2.79 g/m*3 -5 C 3.2 km/h
244 12-02-2021 20:15:00 -5.1 C 2.77 g/m*3 -5.1 C 1.6 km/h
245 12-02-2021 20:20:00 -5.2 C 2.75 g/m*3 -5.2 C 3.2 km/h
246 12-02-2021 20:25:00 -5.3 C 2.73 g/m*3 -5.3 C 3.2 km/h
247 12-02-2021 20:30:00 -5.3 C 2.77 g/m*3 -10.03 C 11.3 km/h
248 12-02-2021 20:35:00 -5.2 C 2.75 g/m*3 -5.2 C 4.8 km/h
249 12-02-2021 20:40:00 -5.2 C 2.75 g/m*3 -5.2 C 3.2 km/h
250 12-02-2021 20:45:00 -5.3 C 2.73 g/m*3 -5.3 C 3.2 km/h
Sensor: Nr:Datum:Temp:Abs-Feuchte:Windchill:Wind:
Aussen-T/F 251 12-02-2021 20:50:00 -5.4 C 2.71 g/m*3 -5.4 C 3.2 km/h
252 12-02-2021 20:55:00 -5.5 C 2.73 g/m*3 -5.5 C 4.8 km/h
253 12-02-2021 21:00:00 -5.6 C 2.71 g/m*3 -5.6 C 3.2 km/h
254 12-02-2021 21:05:00 -5.7 C 2.69 g/m*3 -5.7 C 3.2 km/h
255 12-02-2021 21:10:00 -5.7 C 2.69 g/m*3 -5.7 C 4.8 km/h
256 12-02-2021 21:15:00 -5.7 C 2.72 g/m*3 -5.7 C 3.2 km/h
257 12-02-2021 21:20:00 -5.8 C 2.67 g/m*3 -5.8 C 3.2 km/h
258 12-02-2021 21:25:00 -5.8 C 2.7 g/m*3 -8.88 C 6.4 km/h
259 12-02-2021 21:30:00 -5.8 C 2.7 g/m*3 -5.8 C 3.2 km/h
260 12-02-2021 21:35:00 -5.8 C 2.67 g/m*3 -5.8 C 3.2 km/h
261 12-02-2021 21:40:00 -5.9 C 2.65 g/m*3 -5.9 C 1.6 km/h
262 12-02-2021 21:45:00 -6 C 2.66 g/m*3 -6 C 4.8 km/h
263 12-02-2021 21:50:00 -6.1 C 2.64 g/m*3 -9.23 C 6.4 km/h
264 12-02-2021 21:55:00 -6.2 C 2.62 g/m*3 -6.2 C 3.2 km/h
265 12-02-2021 22:00:00 -6.2 C 2.62 g/m*3 -6.2 C 3.2 km/h
266 12-02-2021 22:05:00 -6.2 C 2.62 g/m*3 -9.34 C 6.4 km/h
267 12-02-2021 22:10:00 -6.2 C 2.65 g/m*3 -6.2 C 4.8 km/h
268 12-02-2021 22:15:00 -6.2 C 2.65 g/m*3 -6.2 C 4.8 km/h
269 12-02-2021 22:20:00 -6.2 C 2.62 g/m*3 -6.2 C 1.6 km/h
270 12-02-2021 22:25:00 -6.3 C 2.6 g/m*3 -6.3 C 4.8 km/h
271 12-02-2021 22:30:00 -6.2 C 2.62 g/m*3 -6.2 C 3.2 km/h
272 12-02-2021 22:35:00 -6.3 C 2.6 g/m*3 -6.3 C 3.2 km/h
273 12-02-2021 22:40:00 -6.3 C 2.6 g/m*3 -6.3 C 1.6 km/h
274 12-02-2021 22:45:00 -6.5 C 2.57 g/m*3 -9.69 C 6.4 km/h
275 12-02-2021 22:50:00 -6.6 C 2.58 g/m*3 -6.6 C 0 km/h
Sensor: Nr:Datum:Temp:Abs-Feuchte:Windchill:Wind:
Aussen-T/F 276 12-02-2021 22:55:00 -6.6 C 2.58 g/m*3 -6.6 C 3.2 km/h
277 12-02-2021 23:00:00 -6.7 C 2.56 g/m*3 -6.7 C 4.8 km/h
278 12-02-2021 23:05:00 -6.7 C 2.56 g/m*3 -6.7 C 3.2 km/h
279 12-02-2021 23:10:00 -6.8 C 2.54 g/m*3 -6.8 C 3.2 km/h
280 12-02-2021 23:15:00 -6.7 C 2.56 g/m*3 -10.65 C 8.1 km/h
281 12-02-2021 23:20:00 -6.7 C 2.56 g/m*3 -6.7 C 0 km/h
282 12-02-2021 23:25:00 -6.8 C 2.54 g/m*3 -6.8 C 1.6 km/h
283 12-02-2021 23:30:00 -6.9 C 2.52 g/m*3 -6.9 C 0 km/h
284 12-02-2021 23:35:00 -7.2 C 2.47 g/m*3 -7.2 C 0 km/h
285 12-02-2021 23:40:00 -7.3 C 2.45 g/m*3 -7.3 C 1.6 km/h
286 12-02-2021 23:45:00 -7.3 C 2.48 g/m*3 -7.3 C 3.2 km/h
287 12-02-2021 23:50:00 -7.3 C 2.48 g/m*3 -7.3 C 3.2 km/h
288 12-02-2021 23:55:00 -7.2 C 2.49 g/m*3 -12.32 C 11.3 km/h

Legende:
   Min
   Max


Maximal/Minimal-Werte vom 12.02.2021 - 12.02.2021

Sensor Min Max Avg
Temp
(Aussen-T/F)
-7.4 °C
12-02-2021  08:10:00
-0.7 °C
12-02-2021  14:55:00
-4.73 °C
Abs-Feuchte
(Aussen-T/F)
2.45 g/m*3
12-02-2021  23:40:00
2.97 g/m*3
12-02-2021  17:25:00
2.73 g/m*3
Windchill
(Aussen-T/F)
-12.32 C
12-02-2021  23:55:00
-1.2 C
12-02-2021  16:45:00
-6.14 C

Die Daten stammen von einer Davis Vantage Pro 2 Wetter-Station und werden unter Linux mit der Software wview2wettercgi und aufbereitet. Alle Angaben erfolgen ohne Gewähr für ihre Vollständigkeit oder Richtigkeit.
Kontakt: Rainer Krienke krienke@uni-koblenz.de . Meine Webseiten an der Uni Koblenz oder privat.
Version: $Revision: 0.78 $